MGN weather

Harbor Springs Airport
Harbor Springs, Michigan, United States

Public forecast

Using degrees Fahrenheit for public forecast. Weather courtesy of forecast.io.

METAR (pilot weather report)

Retrieved 2019/05/20 17:35 UTC (20 minutes ago):

KMGN 201735Z AUTO 36008KT 320V020 10SM BKN024 10/04 A2996 RMK AO2 T00990042

TAF (pilot weather forecast)

Closest forecast is Pellston Regional Airport of Emmet County Airport, 10.0 nm (18.5 km) NNE. Retrieved 2019/05/20 12:33 UTC (5 hours ago):

TAF KPLN 201130Z 2012/2112 35009KT 5SM -RADZ BR OVC007 TEMPO 2012/2014 2SM -RADZ BR OVC004 FM201400 34010G19KT P6SM -DZ OVC009 TEMPO 2014/2015 4SM -RADZ BR OVC006 FM201500 34011G20KT P6SM OVC012 FM201700 33012G21KT P6SM BKN022 FM201800 33013G21KT P6SM BKN035 FM202000 32014G22KT P6SM SCT200